createdAt,value
2023-03-24T00:02:03.145Z,14.78
2023-03-24T00:04:29.836Z,14.77
2023-03-24T00:06:56.532Z,14.67
2023-03-24T00:09:23.236Z,14.66
2023-03-24T00:11:49.881Z,14.64
2023-03-24T00:14:18.966Z,14.54
2023-03-24T00:16:46.720Z,14.46
2023-03-24T00:19:16.228Z,14.23
2023-03-24T00:21:44.103Z,14.11
2023-03-24T00:24:11.706Z,14.03
2023-03-24T00:26:43.126Z,14.00
2023-03-24T00:29:11.843Z,13.94
2023-03-24T00:31:40.557Z,13.87
2023-03-24T00:34:08.827Z,13.85
2023-03-24T00:36:36.120Z,13.82
2023-03-24T00:39:03.032Z,13.88
2023-03-24T00:41:30.142Z,13.97
2023-03-24T00:43:58.567Z,13.93
2023-03-24T00:46:29.378Z,13.95
2023-03-24T00:49:05.825Z,13.99
2023-03-24T00:51:34.480Z,13.99
2023-03-24T00:54:02.194Z,14.03
2023-03-24T00:56:31.540Z,14.00
2023-03-24T00:59:02.694Z,13.94
2023-03-24T01:01:33.228Z,13.89
2023-03-24T01:04:00.307Z,13.92
2023-03-24T01:06:30.189Z,13.97
2023-03-24T01:08:56.941Z,14.01
2023-03-24T01:11:25.348Z,14.00
2023-03-24T01:13:53.821Z,13.91
2023-03-24T01:16:25.891Z,13.82
2023-03-24T01:18:53.055Z,13.82
2023-03-24T01:21:19.912Z,13.77
2023-03-24T01:23:49.512Z,13.74
2023-03-24T01:26:16.208Z,13.67
2023-03-24T01:28:43.862Z,13.65
2023-03-24T01:31:11.567Z,13.64
2023-03-24T01:33:38.466Z,13.67
2023-03-24T01:36:07.972Z,13.70
2023-03-24T01:38:35.434Z,13.62
2023-03-24T01:41:03.128Z,13.55
2023-03-24T01:43:33.255Z,13.47
2023-03-24T01:46:08.285Z,13.34
2023-03-24T01:48:57.113Z,13.27
2023-03-24T01:51:25.512Z,13.33
2023-03-24T01:54:01.849Z,13.28
2023-03-24T01:56:29.100Z,13.16
2023-03-24T01:58:56.976Z,13.19
2023-03-24T02:01:30.968Z,13.22
2023-03-24T02:04:09.145Z,13.16
2023-03-24T02:06:41.259Z,13.08
2023-03-24T02:09:10.515Z,13.10
2023-03-24T02:11:37.865Z,12.93
2023-03-24T02:14:06.465Z,12.94
2023-03-24T02:16:34.369Z,13.03
2023-03-24T02:19:20.037Z,13.01
2023-03-24T02:21:59.242Z,13.03
2023-03-24T02:24:25.908Z,12.95
2023-03-24T02:26:52.856Z,12.94
2023-03-24T02:29:29.924Z,12.92
2023-03-24T02:31:58.954Z,12.91
2023-03-24T02:34:47.605Z,12.82
2023-03-24T02:37:33.957Z,12.73
2023-03-24T02:40:17.096Z,12.73
2023-03-24T02:43:03.142Z,12.70
2023-03-24T02:45:35.518Z,12.70
2023-03-24T02:48:21.124Z,12.75
2023-03-24T02:50:51.324Z,12.72
2023-03-24T02:53:41.347Z,12.71
2023-03-24T02:56:30.186Z,12.66
2023-03-24T02:59:10.138Z,12.56
2023-03-24T03:01:43.628Z,12.48
2023-03-24T03:04:33.293Z,12.50
2023-03-24T03:07:02.802Z,12.53
2023-03-24T03:09:29.566Z,12.59
2023-03-24T03:11:58.611Z,12.64
2023-03-24T03:14:27.747Z,12.69
2023-03-24T03:17:06.328Z,12.72
2023-03-24T03:19:34.099Z,12.72
2023-03-24T03:22:04.181Z,12.79
2023-03-24T03:24:32.544Z,12.80
2023-03-24T03:27:05.712Z,12.78
2023-03-24T03:29:34.197Z,12.85
2023-03-24T03:32:10.488Z,12.84
2023-03-24T03:34:37.727Z,12.81
2023-03-24T03:37:24.787Z,12.66
2023-03-24T03:39:59.141Z,12.54
2023-03-24T03:42:29.263Z,12.50
2023-03-24T03:44:56.169Z,12.49
2023-03-24T03:47:25.344Z,12.55
2023-03-24T03:49:54.296Z,12.60
2023-03-24T03:52:20.973Z,12.63
2023-03-24T03:54:49.522Z,12.64
2023-03-24T03:57:16.452Z,12.58
2023-03-24T04:00:12.152Z,12.44
2023-03-24T04:02:52.650Z,12.49
2023-03-24T04:05:52.595Z,12.54
2023-03-24T04:08:25.136Z,12.60
2023-03-24T04:11:01.104Z,12.59
2023-03-24T04:13:36.405Z,12.52
2023-03-24T04:16:29.239Z,12.44
2023-03-24T04:19:10.478Z,12.45
2023-03-24T04:21:43.229Z,12.46
2023-03-24T04:24:19.717Z,12.45
2023-03-24T04:26:54.720Z,12.47
2023-03-24T04:29:26.758Z,12.47
2023-03-24T04:31:54.548Z,12.46
2023-03-24T04:34:42.153Z,12.42
2023-03-24T04:37:42.003Z,12.35
2023-03-24T04:40:14.954Z,12.23
2023-03-24T04:42:42.847Z,12.15
2023-03-24T04:45:12.713Z,12.02
2023-03-24T04:47:58.967Z,12.07
2023-03-24T04:50:57.449Z,12.05
2023-03-24T04:53:28.810Z,12.07
2023-03-24T04:55:58.633Z,12.05
2023-03-24T04:58:45.767Z,12.01
2023-03-24T05:01:14.278Z,12.05
2023-03-24T05:03:47.942Z,12.06
2023-03-24T05:06:17.538Z,12.05
2023-03-24T05:08:49.188Z,12.04
2023-03-24T05:11:16.361Z,12.00
2023-03-24T05:13:49.145Z,11.91
2023-03-24T05:16:18.496Z,11.85
2023-03-24T05:18:57.865Z,11.69
2023-03-24T05:21:25.401Z,11.66
2023-03-24T05:23:52.744Z,11.74
2023-03-24T05:26:22.359Z,11.86
2023-03-24T05:29:05.185Z,11.94
2023-03-24T05:31:31.950Z,12.00
2023-03-24T05:34:05.477Z,12.11
2023-03-24T05:36:38.506Z,12.19
2023-03-24T05:39:05.616Z,12.24
2023-03-24T05:41:42.038Z,12.43
2023-03-24T05:44:08.678Z,12.54
2023-03-24T05:46:38.355Z,12.63
2023-03-24T05:49:05.057Z,12.80
2023-03-24T05:51:35.219Z,12.93
2023-03-24T05:54:06.357Z,12.98
2023-03-24T05:56:40.058Z,13.05
2023-03-24T05:59:21.339Z,12.95
2023-03-24T06:02:10.553Z,13.14
2023-03-24T06:04:49.324Z,13.10
2023-03-24T06:07:22.291Z,13.03
2023-03-24T06:09:51.344Z,12.96
2023-03-24T06:12:21.657Z,12.94
2023-03-24T06:15:03.758Z,12.90
2023-03-24T06:17:32.170Z,12.95
2023-03-24T06:20:05.690Z,13.03
2023-03-24T06:22:44.694Z,12.93
2023-03-24T06:25:15.376Z,12.88
2023-03-24T06:27:47.599Z,12.98
2023-03-24T06:30:18.926Z,12.96
2023-03-24T06:32:48.194Z,13.07
2023-03-24T06:35:18.356Z,13.26
2023-03-24T06:37:51.802Z,13.36
2023-03-24T06:40:19.676Z,13.41
2023-03-24T06:42:54.777Z,13.36
2023-03-24T06:45:26.335Z,13.33
2023-03-24T06:47:56.314Z,13.25
2023-03-24T06:50:31.242Z,13.29
2023-03-24T06:52:58.058Z,13.32
2023-03-24T06:55:27.361Z,13.35
2023-03-24T06:57:54.373Z,13.46
2023-03-24T07:00:45.171Z,13.44
2023-03-24T07:03:35.062Z,13.52
2023-03-24T07:06:18.490Z,13.60
2023-03-24T07:08:49.901Z,13.73
2023-03-24T07:11:16.730Z,13.91
2023-03-24T07:13:52.953Z,14.01
2023-03-24T07:16:19.725Z,14.10
2023-03-24T07:18:50.293Z,14.27
2023-03-24T07:21:18.300Z,14.44
2023-03-24T07:23:48.641Z,14.49
2023-03-24T07:26:17.221Z,14.69
2023-03-24T07:28:49.095Z,14.96
2023-03-24T07:31:38.348Z,15.03
2023-03-24T07:34:08.431Z,15.23
2023-03-24T07:36:37.358Z,15.18
2023-03-24T07:39:09.512Z,15.33
2023-03-24T07:41:39.306Z,15.41
2023-03-24T07:44:14.488Z,15.40
2023-03-24T07:46:48.719Z,15.58
2023-03-24T07:49:19.799Z,15.81
2023-03-24T07:52:12.677Z,16.02
2023-03-24T07:54:47.749Z,16.22
2023-03-24T07:57:37.390Z,16.50
2023-03-24T08:00:18.167Z,16.57
2023-03-24T08:02:57.528Z,16.62
2023-03-24T08:05:43.521Z,16.69
2023-03-24T08:08:21.683Z,16.73
2023-03-24T08:10:50.584Z,16.85
2023-03-24T08:13:20.076Z,16.89
2023-03-24T08:15:47.001Z,17.01
2023-03-24T08:18:16.418Z,17.10
2023-03-24T08:20:44.227Z,17.00
2023-03-24T08:23:11.253Z,17.03
2023-03-24T08:25:40.355Z,17.24
2023-03-24T08:28:07.681Z,17.15
2023-03-24T08:30:36.848Z,16.94
2023-03-24T08:33:06.681Z,17.03
2023-03-24T08:35:34.349Z,17.21
2023-03-24T08:38:06.908Z,17.24
2023-03-24T08:40:36.873Z,17.27
2023-03-24T08:43:08.953Z,17.46
2023-03-24T08:45:38.336Z,17.53
2023-03-24T08:48:05.835Z,17.45
2023-03-24T08:50:34.606Z,17.35
2023-03-24T08:53:01.352Z,17.35
2023-03-24T08:55:33.713Z,17.52
2023-03-24T08:58:00.642Z,17.62
2023-03-24T09:00:29.061Z,17.62
2023-03-24T09:03:01.428Z,17.36
2023-03-24T09:05:43.844Z,17.40
2023-03-24T09:08:11.363Z,17.43
2023-03-24T09:10:38.833Z,17.23
2023-03-24T09:13:05.699Z,17.39
2023-03-24T09:15:32.565Z,17.31
2023-03-24T09:17:59.203Z,17.51
2023-03-24T09:20:28.820Z,17.57
2023-03-24T09:22:56.208Z,17.56
2023-03-24T09:25:23.070Z,17.53
2023-03-24T09:27:50.443Z,17.48
2023-03-24T09:30:17.899Z,17.59
2023-03-24T09:32:52.964Z,17.67
2023-03-24T09:35:19.875Z,17.83
2023-03-24T09:37:47.353Z,18.00
2023-03-24T09:40:21.491Z,17.82
2023-03-24T09:42:52.634Z,18.13
2023-03-24T09:45:20.453Z,18.18
2023-03-24T09:47:52.905Z,18.28
2023-03-24T09:50:24.184Z,18.27
2023-03-24T09:52:52.186Z,18.49
2023-03-24T09:55:25.767Z,18.71
2023-03-24T09:57:55.370Z,18.92
2023-03-24T10:00:28.436Z,18.94
2023-03-24T10:02:59.478Z,18.92
2023-03-24T10:05:37.872Z,19.16
2023-03-24T10:08:16.434Z,19.66
2023-03-24T10:11:06.384Z,20.12
2023-03-24T10:13:40.856Z,19.97
2023-03-24T10:16:09.834Z,19.69
2023-03-24T10:18:55.947Z,19.77
2023-03-24T10:21:24.890Z,19.62
2023-03-24T10:23:54.993Z,19.88
2023-03-24T10:26:31.895Z,19.68
2023-03-24T10:29:13.880Z,19.86
2023-03-24T10:31:42.630Z,20.05
2023-03-24T10:34:10.794Z,20.29
2023-03-24T10:36:39.438Z,20.49
2023-03-24T10:39:18.996Z,20.60
2023-03-24T10:41:52.028Z,20.62
2023-03-24T10:44:18.669Z,20.66
2023-03-24T10:46:48.528Z,20.68
2023-03-24T10:49:15.172Z,20.88
2023-03-24T10:51:46.678Z,21.17
2023-03-24T10:54:18.814Z,21.59
2023-03-24T10:57:05.913Z,21.92
2023-03-24T10:59:34.446Z,22.00
2023-03-24T11:02:10.473Z,22.17
2023-03-24T11:04:39.320Z,22.36
2023-03-24T11:07:11.174Z,22.21
2023-03-24T11:09:44.887Z,21.89
2023-03-24T11:12:26.716Z,22.04
2023-03-24T11:15:10.496Z,21.99
2023-03-24T11:17:45.552Z,21.90
2023-03-24T11:20:18.990Z,21.89
2023-03-24T11:22:56.116Z,22.04
2023-03-24T11:25:25.687Z,22.28
2023-03-24T11:27:56.995Z,22.50
2023-03-24T11:30:23.651Z,22.95
2023-03-24T11:32:50.442Z,23.04
2023-03-24T11:35:20.441Z,22.69
2023-03-24T11:37:47.239Z,22.93
2023-03-24T11:40:16.860Z,23.40
2023-03-24T11:42:46.694Z,23.14
2023-03-24T11:45:32.228Z,22.84
2023-03-24T11:47:59.292Z,22.79
2023-03-24T11:50:30.169Z,22.74
2023-03-24T11:52:56.771Z,23.12
2023-03-24T11:55:23.330Z,23.80
2023-03-24T11:57:58.948Z,24.13
2023-03-24T12:00:32.304Z,24.70
2023-03-24T12:03:20.174Z,25.23
2023-03-24T12:05:58.199Z,25.40
2023-03-24T12:08:28.076Z,24.69
2023-03-24T12:11:00.391Z,24.45
2023-03-24T12:13:39.302Z,24.92
2023-03-24T12:16:16.053Z,24.93
2023-03-24T12:18:54.747Z,25.16
2023-03-24T12:21:42.590Z,26.11
2023-03-24T12:24:12.247Z,25.53
2023-03-24T12:26:41.380Z,26.07
2023-03-24T12:29:20.447Z,25.71
2023-03-24T12:32:13.466Z,25.37
2023-03-24T12:34:46.304Z,25.04
2023-03-24T12:37:22.285Z,24.80
2023-03-24T12:39:49.254Z,25.10
2023-03-24T12:42:16.302Z,24.88
2023-03-24T12:44:44.566Z,24.52
2023-03-24T12:47:30.133Z,24.26
2023-03-24T12:50:15.491Z,24.13
2023-03-24T12:53:16.389Z,24.38
2023-03-24T12:55:52.353Z,24.79
2023-03-24T12:58:28.262Z,25.04
2023-03-24T13:00:58.559Z,25.75
2023-03-24T13:03:30.897Z,26.26
2023-03-24T13:06:07.262Z,26.49
2023-03-24T13:08:41.481Z,25.96
2023-03-24T13:11:09.148Z,25.71
2023-03-24T13:13:40.529Z,25.92
2023-03-24T13:16:09.148Z,26.32
2023-03-24T13:18:47.219Z,26.53
2023-03-24T13:21:17.584Z,26.06
2023-03-24T13:23:59.554Z,25.33
2023-03-24T13:26:45.187Z,24.74
2023-03-24T13:29:17.425Z,24.99
2023-03-24T13:31:45.589Z,25.12
2023-03-24T13:34:41.893Z,25.42
2023-03-24T13:37:13.524Z,24.97
2023-03-24T13:39:43.636Z,24.56
2023-03-24T13:42:24.880Z,25.00
2023-03-24T13:44:51.520Z,25.55
2023-03-24T13:47:23.649Z,26.58
2023-03-24T13:50:08.406Z,27.65
2023-03-24T13:52:38.399Z,28.31
2023-03-24T13:55:14.106Z,28.24
2023-03-24T13:57:41.465Z,28.83
2023-03-24T14:00:14.404Z,30.20
2023-03-24T14:02:43.085Z,29.73
2023-03-24T14:05:10.987Z,30.19
2023-03-24T14:07:43.737Z,29.40
2023-03-24T14:10:16.667Z,29.13
2023-03-24T14:12:53.923Z,29.48
2023-03-24T14:15:32.968Z,29.12
2023-03-24T14:18:20.463Z,27.76
2023-03-24T14:20:58.673Z,26.82
2023-03-24T14:23:53.229Z,27.63
2023-03-24T14:26:20.183Z,27.90
2023-03-24T14:28:52.552Z,28.70
2023-03-24T14:31:19.258Z,27.21
2023-03-24T14:33:55.255Z,26.08
2023-03-24T14:36:48.268Z,25.09
2023-03-24T14:39:33.297Z,24.75
2023-03-24T14:42:04.201Z,24.64
2023-03-24T14:44:55.081Z,24.49
2023-03-24T14:47:22.443Z,24.41
2023-03-24T14:49:52.160Z,24.63
2023-03-24T14:52:27.926Z,24.83
2023-03-24T14:54:55.303Z,25.25
2023-03-24T14:57:26.917Z,25.33
2023-03-24T15:00:01.224Z,25.19
2023-03-24T15:02:35.770Z,24.79
2023-03-24T15:05:17.946Z,24.67
2023-03-24T15:07:46.290Z,24.26
2023-03-24T15:10:16.814Z,23.99
2023-03-24T15:12:46.865Z,24.15
2023-03-24T15:15:23.132Z,24.03
2023-03-24T15:17:53.139Z,24.06
2023-03-24T15:20:24.315Z,24.03
2023-03-24T15:22:55.419Z,24.02
2023-03-24T15:25:28.345Z,23.93
2023-03-24T15:27:55.861Z,23.77
2023-03-24T15:30:22.596Z,23.72
2023-03-24T15:32:51.714Z,23.49
2023-03-24T15:35:20.388Z,23.28
2023-03-24T15:37:51.353Z,23.12
2023-03-24T15:40:27.384Z,22.90
2023-03-24T15:42:54.747Z,22.70
2023-03-24T15:45:28.742Z,22.61
2023-03-24T15:47:55.889Z,22.78
2023-03-24T15:50:35.755Z,23.06
2023-03-24T15:53:03.835Z,23.40
2023-03-24T15:55:31.929Z,23.49
2023-03-24T15:58:00.488Z,23.35
2023-03-24T16:00:39.514Z,23.18
2023-03-24T16:03:06.996Z,22.97
2023-03-24T16:05:37.510Z,22.78
2023-03-24T16:08:07.273Z,22.66
2023-03-24T16:10:42.665Z,22.67
2023-03-24T16:13:15.636Z,22.47
2023-03-24T16:15:45.320Z,22.17
2023-03-24T16:18:24.586Z,22.27
2023-03-24T16:20:53.392Z,22.37
2023-03-24T16:23:31.760Z,22.21
2023-03-24T16:25:59.057Z,22.00
2023-03-24T16:28:25.804Z,21.94
2023-03-24T16:30:57.208Z,21.84
2023-03-24T16:33:24.124Z,21.71
2023-03-24T16:35:58.098Z,21.71
2023-03-24T16:38:25.507Z,21.67
2023-03-24T16:40:53.013Z,21.67
2023-03-24T16:43:19.965Z,21.66
2023-03-24T16:45:47.134Z,21.57
2023-03-24T16:48:23.042Z,21.58
2023-03-24T16:50:51.751Z,21.55
2023-03-24T16:53:18.669Z,21.55
2023-03-24T16:55:47.777Z,21.51
2023-03-24T16:58:14.853Z,21.42
2023-03-24T17:00:43.983Z,21.43
2023-03-24T17:03:10.851Z,21.42
2023-03-24T17:05:39.970Z,21.43
2023-03-24T17:08:11.724Z,21.37
2023-03-24T17:10:38.558Z,21.35
2023-03-24T17:13:09.914Z,21.35
2023-03-24T17:15:38.622Z,21.32
2023-03-24T17:18:14.308Z,21.24
2023-03-24T17:20:41.874Z,21.17
2023-03-24T17:23:12.802Z,21.17
2023-03-24T17:25:39.816Z,21.20
2023-03-24T17:28:09.826Z,21.25
2023-03-24T17:30:36.806Z,21.19
2023-03-24T17:33:07.413Z,21.15
2023-03-24T17:35:34.494Z,21.12
2023-03-24T17:38:01.174Z,21.07
2023-03-24T17:40:27.850Z,21.13
2023-03-24T17:42:59.711Z,21.11
2023-03-24T17:45:26.410Z,21.11
2023-03-24T17:47:55.900Z,21.05
2023-03-24T17:50:22.693Z,20.89
2023-03-24T17:52:49.825Z,20.86
2023-03-24T17:55:18.993Z,20.76
2023-03-24T17:57:45.967Z,20.71
2023-03-24T18:00:16.557Z,20.61
2023-03-24T18:02:43.266Z,20.57
2023-03-24T18:05:12.859Z,20.48
2023-03-24T18:07:42.714Z,20.41
2023-03-24T18:10:09.895Z,20.45
2023-03-24T18:12:37.139Z,20.40
2023-03-24T18:15:05.177Z,20.30
2023-03-24T18:17:32.243Z,20.26
2023-03-24T18:20:10.346Z,20.26
2023-03-24T18:22:37.839Z,20.25
2023-03-24T18:25:04.581Z,20.20
2023-03-24T18:27:31.375Z,20.17
2023-03-24T18:30:00.443Z,20.12
2023-03-24T18:32:27.269Z,20.09
2023-03-24T18:34:54.240Z,20.13
2023-03-24T18:37:23.254Z,20.10
2023-03-24T18:39:52.362Z,20.09
2023-03-24T18:42:19.025Z,20.09
2023-03-24T18:44:46.138Z,20.02
2023-03-24T18:47:13.312Z,19.88
2023-03-24T18:49:42.426Z,19.77
2023-03-24T18:52:11.475Z,19.74
2023-03-24T18:54:38.049Z,19.73
2023-03-24T18:57:08.749Z,19.67
2023-03-24T18:59:35.499Z,19.71
2023-03-24T19:02:04.824Z,19.79
2023-03-24T19:04:31.785Z,19.87
2023-03-24T19:07:00.568Z,19.97
2023-03-24T19:09:27.415Z,19.97
2023-03-24T19:11:54.102Z,20.00
2023-03-24T19:14:21.105Z,20.03
2023-03-24T19:16:49.869Z,20.00
2023-03-24T19:19:18.497Z,19.98
2023-03-24T19:21:47.354Z,19.92
2023-03-24T19:24:13.999Z,19.83
2023-03-24T19:26:40.608Z,19.90
2023-03-24T19:29:09.621Z,19.97
2023-03-24T19:31:36.528Z,19.97
2023-03-24T19:34:05.761Z,19.98
2023-03-24T19:36:37.001Z,20.06
2023-03-24T19:39:08.959Z,19.92
2023-03-24T19:41:38.102Z,19.92
2023-03-24T19:44:07.150Z,19.93
2023-03-24T19:46:36.302Z,20.03
2023-03-24T19:49:05.462Z,20.12
2023-03-24T19:51:32.472Z,20.06
2023-03-24T19:53:59.120Z,20.06
2023-03-24T19:56:25.911Z,20.06
2023-03-24T19:58:54.996Z,20.03
2023-03-24T20:01:24.074Z,19.97
2023-03-24T20:03:51.596Z,19.97
2023-03-24T20:06:20.798Z,20.01
2023-03-24T20:08:47.462Z,19.98
2023-03-24T20:11:16.661Z,19.82
2023-03-24T20:13:43.238Z,19.64
2023-03-24T20:16:10.020Z,19.59
2023-03-24T20:18:39.003Z,19.54
2023-03-24T20:21:09.209Z,19.46
2023-03-24T20:23:35.972Z,19.29
2023-03-24T20:26:04.170Z,19.30
2023-03-24T20:28:33.228Z,19.17
2023-03-24T20:31:03.274Z,18.87
2023-03-24T20:33:30.261Z,18.64
2023-03-24T20:35:59.354Z,18.49
2023-03-24T20:38:26.672Z,18.47
2023-03-24T20:40:57.343Z,18.55
2023-03-24T20:43:24.250Z,18.61
2023-03-24T20:45:59.468Z,18.69
2023-03-24T20:48:26.596Z,18.71
2023-03-24T20:50:53.196Z,18.68
2023-03-24T20:53:25.021Z,18.70
2023-03-24T20:56:01.617Z,18.75
2023-03-24T20:58:29.017Z,18.77
2023-03-24T21:00:58.273Z,18.76
2023-03-24T21:03:25.364Z,18.68
2023-03-24T21:05:52.484Z,18.62
2023-03-24T21:08:19.400Z,18.57
2023-03-24T21:10:45.994Z,18.52
2023-03-24T21:13:16.871Z,18.51
2023-03-24T21:15:46.428Z,18.52
2023-03-24T21:18:13.087Z,18.40
2023-03-24T21:20:47.304Z,18.34
2023-03-24T21:23:13.873Z,18.30
2023-03-24T21:25:40.557Z,18.32
2023-03-24T21:28:07.131Z,18.33
2023-03-24T21:30:33.800Z,18.32
2023-03-24T21:33:00.912Z,18.30
2023-03-24T21:35:28.076Z,18.25
2023-03-24T21:37:54.793Z,18.28
2023-03-24T21:40:25.079Z,18.26
2023-03-24T21:42:53.241Z,18.16
2023-03-24T21:45:20.895Z,18.12
2023-03-24T21:47:50.182Z,18.00
2023-03-24T21:50:23.220Z,17.94
2023-03-24T21:52:53.306Z,17.83
2023-03-24T21:55:23.295Z,17.74
2023-03-24T21:57:52.326Z,17.85
2023-03-24T22:00:25.379Z,17.89
2023-03-24T22:02:54.596Z,17.81
2023-03-24T22:05:24.680Z,17.81
2023-03-24T22:07:51.694Z,17.83
2023-03-24T22:10:29.920Z,17.74
2023-03-24T22:12:56.742Z,17.76
2023-03-24T22:15:29.919Z,17.74
2023-03-24T22:17:57.914Z,17.74
2023-03-24T22:20:28.378Z,17.71
2023-03-24T22:22:57.912Z,17.76
2023-03-24T22:25:27.389Z,17.76
2023-03-24T22:27:56.100Z,17.65
2023-03-24T22:30:25.113Z,17.69
2023-03-24T22:32:51.800Z,17.75
2023-03-24T22:35:18.944Z,17.81
2023-03-24T22:37:47.606Z,17.83
2023-03-24T22:40:14.245Z,17.80
2023-03-24T22:42:43.436Z,17.83
2023-03-24T22:45:10.372Z,17.85
2023-03-24T22:47:37.458Z,17.90
2023-03-24T22:50:04.214Z,17.91
2023-03-24T22:52:30.997Z,17.90
2023-03-24T22:55:00.259Z,17.84
2023-03-24T22:57:27.730Z,17.82
2023-03-24T22:59:54.334Z,17.86
2023-03-24T23:02:24.726Z,17.85
2023-03-24T23:04:51.922Z,17.78
2023-03-24T23:07:22.421Z,17.83
2023-03-24T23:09:53.616Z,17.88
2023-03-24T23:12:21.430Z,17.82
2023-03-24T23:14:48.085Z,17.85
2023-03-24T23:17:19.602Z,17.86
2023-03-24T23:19:46.279Z,17.86
2023-03-24T23:22:13.004Z,17.87
2023-03-24T23:24:42.620Z,17.89
2023-03-24T23:27:11.450Z,17.89
2023-03-24T23:29:40.876Z,17.84
2023-03-24T23:32:07.860Z,17.80
2023-03-24T23:34:34.874Z,17.67
2023-03-24T23:37:04.947Z,17.60
2023-03-24T23:39:36.679Z,17.55
2023-03-24T23:42:05.879Z,17.59
2023-03-24T23:44:32.592Z,17.59
2023-03-24T23:47:02.312Z,17.59
2023-03-24T23:49:31.462Z,17.56
2023-03-24T23:51:58.070Z,17.56
2023-03-24T23:54:24.751Z,17.54
2023-03-24T23:56:53.905Z,17.58
2023-03-24T23:59:21.006Z,17.69
